Time;durP1;ratioP1;P1;durP2;ratioP2;P2;SDS_P1;SDS_P2;PMS_P1;PMS_P2;Temp;Humidity;BMP_temperature;BMP_pressure;BME280_temperature;BME280_humidity;BME280_pressure;Samples;Min_cycle;Max_cycle;Signal;HPM_P1;HPM_P2
2021/12/14 00:04:58;;;;;;;8.90;6.00;;;;;;;7.16;74.01;98842.16;9719273;30;20049;-79
2021/12/14 00:15:58;;;;;;;8.05;6.30;;;;;;;7.15;73.83;98840.66;9732853;30;20493;-78
2021/12/14 00:21:28;;;;;;;8.13;5.85;;;;;;;7.16;73.87;98851.22;9719486;30;20460;-79
2021/12/14 00:26:55;;;;;;;8.27;6.22;;;;;;;7.16;74.01;98844.94;9703133;30;20505;-79
2021/12/14 00:32:19;;;;;;;8.35;6.97;;;;;;;7.20;74.03;98842.53;9707034;30;20070;-79
2021/12/14 00:37:45;;;;;;;9.48;6.85;;;;;;;7.17;73.94;98844.38;9706611;30;20128;-78
2021/12/14 00:43:07;;;;;;;11.65;7.05;;;;;;;7.20;74.09;98845.31;9706848;30;20054;-79
2021/12/14 00:48:27;;;;;;;9.13;6.53;;;;;;;7.18;73.84;98836.78;9706040;30;20128;-79
2021/12/14 00:53:49;;;;;;;9.40;6.53;;;;;;;7.17;73.94;98838.81;9718579;30;20062;-79
2021/12/14 00:59:09;;;;;;;7.53;6.25;;;;;;;7.23;73.71;98841.44;9705659;30;20065;-79
2021/12/14 01:04:37;;;;;;;8.93;6.63;;;;;;;7.20;73.56;98848.09;9706020;30;20053;-79
2021/12/14 01:10:03;;;;;;;8.35;6.68;;;;;;;7.23;73.61;98851.81;9707626;30;20099;-78
2021/12/14 01:15:49;;;;;;;8.95;6.82;;;;;;;7.27;73.74;98841.09;9706737;30;20053;-79
2021/12/14 01:26:52;;;;;;;9.48;6.07;;;;;;;7.26;73.59;98839.63;9712115;30;20057;-78
2021/12/14 01:32:13;;;;;;;8.63;6.65;;;;;;;7.27;73.75;98830.00;9684554;30;20067;-78
2021/12/14 01:37:41;;;;;;;8.68;6.03;;;;;;;7.31;73.71;98835.94;9686658;30;20512;-79
2021/12/14 01:43:02;;;;;;;8.55;6.10;;;;;;;7.30;73.68;98842.78;9701284;30;20057;-78
2021/12/14 01:48:24;;;;;;;6.93;5.63;;;;;;;7.29;73.65;98839.25;9699193;30;20296;-78
2021/12/14 01:54:05;;;;;;;8.57;5.78;;;;;;;7.29;73.80;98844.06;9682306;30;20112;-79
2021/12/14 01:59:34;;;;;;;7.47;6.03;;;;;;;7.26;73.48;98845.19;9692114;30;20081;-78
2021/12/14 02:04:56;;;;;;;8.00;6.28;;;;;;;7.24;73.77;98823.50;9692098;30;20061;-78
2021/12/14 02:10:33;;;;;;;7.80;6.80;;;;;;;7.22;73.51;98825.31;9680031;30;20046;-78
2021/12/14 02:15:53;;;;;;;9.75;6.57;;;;;;;7.20;73.68;98830.69;9691767;30;20053;-79
2021/12/14 02:21:18;;;;;;;9.60;7.28;;;;;;;7.21;73.96;98832.91;9691886;30;20058;-79
2021/12/14 02:26:41;;;;;;;9.27;6.72;;;;;;;7.22;73.96;98833.66;9679907;30;20133;-79
2021/12/14 02:32:04;;;;;;;9.20;7.13;;;;;;;7.22;73.84;98830.88;9679195;30;20054;-78
2021/12/14 02:37:38;;;;;;;10.32;7.10;;;;;;;7.23;73.71;98826.81;9691311;30;20119;-79
2021/12/14 02:43:01;;;;;;;9.32;7.38;;;;;;;7.17;73.68;98826.97;9679391;30;20049;-78
2021/12/14 02:48:24;;;;;;;8.65;7.10;;;;;;;7.15;73.82;98824.75;9693370;30;20054;-79
2021/12/14 02:53:46;;;;;;;10.85;7.80;;;;;;;7.16;73.62;98828.28;9686689;30;20065;-79
2021/12/14 02:59:12;;;;;;;9.70;7.18;;;;;;;7.14;73.67;98823.25;9698123;30;20405;-78
2021/12/14 03:04:38;;;;;;;10.98;7.60;;;;;;;7.15;73.41;98819.19;9697957;30;20124;-79
2021/12/14 03:10:19;;;;;;;8.77;6.68;;;;;;;7.15;73.75;98815.69;9697303;30;20057;-79
2021/12/14 03:15:47;;;;;;;9.77;7.25;;;;;;;7.11;73.25;98813.22;9687220;30;20050;-79
2021/12/14 03:21:17;;;;;;;9.27;7.18;;;;;;;7.13;73.66;98809.91;9697837;30;20057;-79
2021/12/14 03:26:42;;;;;;;9.00;6.53;;;;;;;7.12;73.73;98813.97;9696833;30;20173;-79
2021/12/14 03:32:05;;;;;;;8.52;6.55;;;;;;;7.14;73.46;98816.94;9697306;30;20119;-78
2021/12/14 03:37:27;;;;;;;11.17;7.00;;;;;;;7.16;73.70;98809.56;9696512;30;20042;-79
2021/12/14 03:42:53;;;;;;;9.00;7.30;;;;;;;7.17;73.65;98815.88;9696327;30;20159;-79
2021/12/14 03:48:14;;;;;;;9.43;6.90;;;;;;;7.13;73.55;98810.66;9684397;30;20084;-79
2021/12/14 03:53:37;;;;;;;10.48;7.15;;;;;;;7.16;73.61;98808.84;9697665;30;20066;-78
2021/12/14 03:59:01;;;;;;;8.95;7.40;;;;;;;7.17;73.42;98802.72;9701881;30;20056;-78
2021/12/14 04:04:27;;;;;;;9.60;7.28;;;;;;;7.18;73.60;98806.25;9701039;30;20050;-79
2021/12/14 04:09:49;;;;;;;8.63;6.88;;;;;;;7.20;73.35;98802.91;9696599;30;20084;-79
2021/12/14 04:15:13;;;;;;;12.13;9.30;;;;;;;7.16;73.41;98808.84;9695886;30;20410;-79
2021/12/14 04:20:37;;;;;;;11.98;9.05;;;;;;;7.15;73.49;98802.53;9683857;30;20285;-78
2021/12/14 04:26:00;;;;;;;10.07;7.82;;;;;;;7.14;73.46;98806.59;9695306;30;20049;-79
2021/12/14 04:31:23;;;;;;;12.07;8.73;;;;;;;7.10;73.51;98806.19;9694653;30;20124;-79
2021/12/14 04:36:51;;;;;;;12.50;8.45;;;;;;;7.08;73.45;98800.44;9695160;30;20077;-79
2021/12/14 04:54:04;;;;;;;10.77;7.95;;;;;;;7.04;73.61;98777.81;9676551;30;20068;-79
2021/12/14 04:59:27;;;;;;;9.63;7.63;;;;;;;7.07;73.55;98773.97;9694634;30;20077;-79
2021/12/14 05:04:50;;;;;;;9.75;7.50;;;;;;;7.05;73.22;98775.81;9688738;30;20050;-79
2021/12/14 05:10:17;;;;;;;9.38;6.82;;;;;;;7.04;73.63;98775.06;9682493;30;20074;-79
2021/12/14 05:15:45;;;;;;;10.20;7.40;;;;;;;7.04;73.62;98780.59;9681359;30;20062;-78
2021/12/14 05:21:08;;;;;;;9.30;7.18;;;;;;;7.03;73.78;98776.34;9711854;30;20523;-79
2021/12/14 05:26:34;;;;;;;8.75;6.72;;;;;;;7.07;73.67;98765.66;9725094;30;20053;-79
2021/12/14 05:31:58;;;;;;;11.00;7.55;;;;;;;7.05;73.46;98759.91;9733346;30;20077;-77
2021/12/14 05:37:24;;;;;;;10.07;6.93;;;;;;;7.06;73.75;98761.38;9723134;30;20494;-79
2021/12/14 05:48:36;;;;;;;7.32;5.75;;;;;;;7.02;73.68;98763.75;9661323;30;20057;-79
2021/12/14 05:53:57;;;;;;;7.97;5.80;;;;;;;7.06;73.51;98763.41;9668032;30;20110;-80
2021/12/14 05:59:23;;;;;;;8.40;5.43;;;;;;;7.02;73.46;98771.34;9688271;30;20042;-80
2021/12/14 06:04:46;;;;;;;7.95;6.05;;;;;;;6.99;73.36;98764.13;9687093;30;20081;-79
2021/12/14 06:10:08;;;;;;;8.13;5.60;;;;;;;6.95;73.50;98760.94;9685036;30;20056;-79
2021/12/14 06:15:32;;;;;;;8.75;6.63;;;;;;;6.93;73.58;98764.25;9679762;30;20050;-79
2021/12/14 06:21:05;;;;;;;10.32;7.22;;;;;;;6.88;73.46;98754.06;9682044;30;20074;-79
2021/12/14 06:26:44;;;;;;;9.65;6.90;;;;;;;6.85;73.47;98753.13;9688332;30;20061;-79
2021/12/14 06:38:29;;;;;;;6.47;5.05;;;;;;;6.83;73.50;98743.84;11591560;24;20052;-82
2021/12/14 06:56:33;;;;;;;4.82;4.00;;;;;;;6.84;72.94;98739.78;11224796;24;20040;-82
2021/12/14 07:21:07;;;;;;;2.50;2.25;;;;;;;6.76;71.98;98744.56;11750763;24;20044;-84
2021/12/14 07:26:36;;;;;;;3.15;2.30;;;;;;;6.84;71.62;98757.16;11222252;24;20064;31
2021/12/14 07:31:57;;;;;;;2.70;2.42;;;;;;;6.95;71.62;98761.69;9807827;30;20326;-80
2021/12/14 07:37:27;;;;;;;3.55;2.28;;;;;;;7.02;71.22;98763.00;9859006;30;20039;-82
2021/12/14 07:42:49;;;;;;;4.93;3.38;;;;;;;7.09;70.87;98781.75;9851945;30;20033;-83
2021/12/14 07:48:11;;;;;;;4.32;1.70;;;;;;;7.16;71.31;98781.81;9848872;30;20055;-82
2021/12/14 07:53:37;;;;;;;2.35;1.52;;;;;;;7.22;70.80;98792.00;9839118;30;20073;-82
2021/12/14 07:58:58;;;;;;;3.25;1.70;;;;;;;7.17;70.30;98794.41;9851374;30;20068;-81
2021/12/14 08:04:19;;;;;;;2.03;1.63;;;;;;;7.14;70.57;98795.50;9881113;30;20083;-83
2021/12/14 08:09:51;;;;;;;3.13;2.33;;;;;;;7.08;70.68;98797.66;9887241;30;20032;-81
2021/12/14 08:15:28;;;;;;;2.83;1.88;;;;;;;7.05;70.51;98793.22;9875370;30;20059;-83
2021/12/14 08:21:02;;;;;;;3.73;2.37;;;;;;;7.10;71.10;98797.88;9874752;30;20092;-83
2021/12/14 08:26:46;;;;;;;4.53;2.38;;;;;;;7.08;70.81;98777.50;9887257;30;20028;-83
2021/12/14 08:32:12;;;;;;;3.83;2.50;;;;;;;7.15;70.78;98780.31;9851193;30;20037;-81
2021/12/14 08:37:43;;;;;;;3.03;2.38;;;;;;;7.23;70.60;98779.59;9810197;30;20045;-79
2021/12/14 08:43:19;;;;;;;3.47;2.40;;;;;;;7.35;70.58;98780.78;9809228;30;20041;-80
2021/12/14 08:48:43;;;;;;;2.88;2.47;;;;;;;7.46;70.82;98781.22;9803823;30;20072;-82
2021/12/14 08:54:31;;;;;;;4.80;3.22;;;;;;;7.45;70.02;98773.44;9801296;30;20053;-82
2021/12/14 08:59:55;;;;;;;4.20;3.05;;;;;;;7.52;70.12;98771.97;9782324;30;20099;-81
2021/12/14 09:05:47;;;;;;;3.90;2.80;;;;;;;7.65;69.81;98767.03;9800700;30;20041;-82
2021/12/14 09:11:09;;;;;;;5.40;2.80;;;;;;;7.73;70.01;98756.69;9790207;30;20045;-81
2021/12/14 09:16:31;;;;;;;4.57;2.70;;;;;;;7.76;69.67;98752.03;9811945;30;20106;-80
2021/12/14 09:21:55;;;;;;;4.80;3.50;;;;;;;7.85;69.79;98754.28;9810711;30;20029;-83
2021/12/14 09:27:18;;;;;;;8.60;4.97;;;;;;;7.98;69.58;98756.16;9825896;30;20135;-81
2021/12/14 09:32:39;;;;;;;6.65;5.15;;;;;;;7.87;69.95;98748.19;9834286;30;20044;-83
2021/12/14 09:38:01;;;;;;;9.70;5.70;;;;;;;8.02;69.78;98753.78;9834891;30;20049;-82
2021/12/14 09:49:53;;;;;;;5.97;4.43;;;;;;;8.26;69.48;98746.94;10115002;24;20125;-79
2021/12/14 09:55:23;;;;;;;7.65;4.13;;;;;;;8.29;69.05;98746.56;9828104;30;20048;-81
2021/12/14 10:00:54;;;;;;;3.78;2.78;;;;;;;8.32;68.25;98739.91;9812979;30;20515;-80
2021/12/14 10:06:19;;;;;;;3.38;2.63;;;;;;;8.45;68.50;98735.47;9828046;30;20728;-80
2021/12/14 10:17:21;;;;;;;4.20;2.97;;;;;;;8.47;67.31;98724.53;9831338;30;20045;-83
2021/12/14 10:22:42;;;;;;;3.72;2.40;;;;;;;8.65;67.51;98720.59;9903950;24;20040;-86
2021/12/14 10:28:04;;;;;;;3.42;1.83;;;;;;;8.87;66.88;98730.94;9833435;30;20052;-82
2021/12/14 10:33:27;;;;;;;3.30;2.40;;;;;;;9.14;66.79;98728.47;10786900;24;20075;-82
2021/12/14 10:44:37;;;;;;;4.78;2.47;;;;;;;9.31;66.22;98727.13;9928953;29;20047;-82
2021/12/14 10:56:22;;;;;;;4.32;3.17;;;;;;;9.41;65.88;98737.13;10570906;24;20063;-87
2021/12/14 11:01:49;;;;;;;4.25;2.55;;;;;;;9.60;65.54;98742.25;9849746;30;20052;-82
2021/12/14 11:07:17;;;;;;;3.67;2.83;;;;;;;9.54;64.11;98740.97;9809410;30;20036;-84
2021/12/14 11:12:41;;;;;;;4.13;2.50;;;;;;;9.35;64.99;98733.03;9811477;30;20053;-78
2021/12/14 11:18:14;;;;;;;3.05;1.85;;;;;;;9.27;64.26;98729.56;9818409;30;20033;-85
2021/12/14 11:23:44;;;;;;;3.95;2.10;;;;;;;9.19;64.98;98732.38;9833775;30;20084;-82
2021/12/14 11:29:09;;;;;;;4.70;2.13;;;;;;;9.07;64.92;98725.72;9823994;30;20045;-81
2021/12/14 11:34:35;;;;;;;4.28;2.55;;;;;;;8.92;64.50;98720.19;9822083;30;20033;-85
2021/12/14 11:39:55;;;;;;;3.15;2.30;;;;;;;8.85;64.78;98710.56;9838256;30;20094;-81
2021/12/14 11:45:19;;;;;;;3.65;2.08;;;;;;;8.83;64.66;98719.47;9818548;30;20048;-80
2021/12/14 11:50:43;;;;;;;4.67;3.03;;;;;;;8.79;64.86;98718.38;9791287;30;20107;-76
2021/12/14 11:56:13;;;;;;;4.43;2.70;;;;;;;8.76;64.66;98711.88;9809860;30;20120;-82
2021/12/14 12:01:39;;;;;;;3.58;2.03;;;;;;;8.73;64.24;98713.00;9825070;30;20096;-83
2021/12/14 12:12:38;;;;;;;2.92;2.13;;;;;;;8.67;64.43;98703.34;9837255;30;20049;-82
2021/12/14 12:18:00;;;;;;;4.45;2.75;;;;;;;8.65;64.20;98695.56;9835904;30;20068;-82
2021/12/14 12:23:24;;;;;;;4.03;2.38;;;;;;;8.60;63.95;98677.03;9821269;30;20139;-82
2021/12/14 12:28:46;;;;;;;5.10;2.33;;;;;;;8.63;64.35;98666.81;9823254;30;20037;-83
2021/12/14 12:34:08;;;;;;;3.40;1.80;;;;;;;8.64;64.55;98685.00;9823092;30;20052;-78
2021/12/14 12:39:31;;;;;;;5.70;2.53;;;;;;;8.59;64.24;98697.81;9791647;30;20056;-80
2021/12/14 12:44:52;;;;;;;5.47;2.25;;;;;;;8.56;64.63;98688.50;9810325;30;20057;-81
2021/12/14 12:50:13;;;;;;;3.00;1.85;;;;;;;8.55;64.36;98673.13;9809810;30;20408;-79
2021/12/14 12:55:35;;;;;;;5.07;2.60;;;;;;;8.53;64.60;98672.22;9807988;30;20457;-80
2021/12/14 13:00:58;;;;;;;3.92;1.92;;;;;;;8.49;64.36;98680.94;9804511;30;20492;-81
2021/12/14 13:06:29;;;;;;;3.42;1.80;;;;;;;8.48;64.27;98695.38;9815077;30;20056;-80
2021/12/14 13:11:50;;;;;;;2.63;1.58;;;;;;;8.39;64.01;98698.72;9822438;30;20879;-79
2021/12/14 13:17:15;;;;;;;3.50;1.70;;;;;;;8.35;64.24;98693.56;9790910;30;20055;-80
2021/12/14 13:22:47;;;;;;;3.75;1.85;;;;;;;8.26;64.47;98700.38;9800913;30;20057;-78
2021/12/14 13:28:07;;;;;;;3.28;2.17;;;;;;;8.18;64.44;98702.41;9787637;30;20416;-77
2021/12/14 13:33:29;;;;;;;6.35;2.08;;;;;;;8.15;64.88;98695.19;9787626;30;20055;-78
2021/12/14 13:38:50;;;;;;;5.05;2.13;;;;;;;8.12;65.00;98709.47;9774408;30;20060;-79
2021/12/14 13:44:11;;;;;;;4.75;2.80;;;;;;;8.06;64.99;98708.91;9821896;30;20403;-79
2021/12/14 13:49:32;;;;;;;4.90;3.20;;;;;;;8.04;65.26;98715.03;9787142;30;20052;-79
2021/12/14 13:55:20;;;;;;;5.15;2.80;;;;;;;7.99;65.24;98727.81;9766565;30;20061;-79
2021/12/14 14:00:47;;;;;;;5.97;3.42;;;;;;;7.95;65.63;98729.47;9768869;30;20390;-79
2021/12/14 14:06:11;;;;;;;5.70;3.83;;;;;;;7.89;65.69;98735.19;9784975;30;20389;-79
2021/12/14 14:11:35;;;;;;;8.38;4.75;;;;;;;7.87;65.95;98728.72;9773280;30;20053;-79
2021/12/14 14:17:02;;;;;;;8.23;5.20;;;;;;;7.84;65.52;98730.56;9772380;30;20049;-81
2021/12/14 14:22:34;;;;;;;7.15;5.10;;;;;;;7.80;65.97;98740.56;9837561;30;20032;-80
2021/12/14 14:27:57;;;;;;;6.40;4.63;;;;;;;7.77;65.77;98730.56;9818240;30;20038;-81
2021/12/14 14:33:23;;;;;;;8.05;5.25;;;;;;;7.73;66.03;98731.66;9806716;30;20036;-79
2021/12/14 14:38:45;;;;;;;6.60;4.50;;;;;;;7.72;66.45;98730.19;9819063;30;20032;-82
2021/12/14 14:44:13;;;;;;;7.53;5.03;;;;;;;7.71;66.48;98730.72;9810523;30;20036;-81
2021/12/14 14:49:58;;;;;;;7.03;4.32;;;;;;;7.69;66.63;98731.25;9833415;30;20130;-80
2021/12/14 14:55:22;;;;;;;6.82;4.50;;;;;;;7.65;66.78;98739.22;9800458;30;20649;-80
2021/12/14 15:01:03;;;;;;;8.00;5.15;;;;;;;7.62;66.51;98743.09;9824916;30;20468;-78
2021/12/14 15:06:33;;;;;;;5.97;4.43;;;;;;;7.59;66.63;98755.31;9829931;30;20078;-81
2021/12/14 15:11:57;;;;;;;7.38;4.30;;;;;;;7.59;66.85;98751.81;9817528;30;20037;-80
2021/12/14 15:17:22;;;;;;;7.00;4.05;;;;;;;7.57;66.49;98760.69;9848617;30;20036;-79
2021/12/14 15:22:42;;;;;;;5.80;3.90;;;;;;;7.57;66.59;98757.91;9852051;30;20041;-81
2021/12/14 15:28:04;;;;;;;4.97;2.90;;;;;;;7.56;66.52;98761.25;9816484;30;20037;-80
2021/12/14 15:33:38;;;;;;;6.70;3.80;;;;;;;7.53;66.60;98774.22;9827673;30;20045;-80
2021/12/14 15:39:01;;;;;;;10.75;5.95;;;;;;;7.51;66.72;98781.59;9832915;30;20049;-83
2021/12/14 15:44:22;;;;;;;9.77;5.95;;;;;;;7.50;66.83;98783.63;9819920;30;20052;-81
2021/12/14 15:49:43;;;;;;;11.50;5.30;;;;;;;7.51;66.67;98792.69;9812530;30;20052;-86
2021/12/14 15:55:04;;;;;;;9.00;5.18;;;;;;;7.49;66.88;98787.69;9819662;30;20056;-79
2021/12/14 16:00:25;;;;;;;6.60;4.88;;;;;;;7.46;66.99;98795.09;9827476;30;20049;-83
2021/12/14 16:05:46;;;;;;;8.88;6.10;;;;;;;7.45;67.47;98792.88;9847324;30;20389;-79
2021/12/14 16:11:18;;;;;;;8.90;5.40;;;;;;;7.42;67.26;98774.50;9836986;30;20039;-79
2021/12/14 16:16:38;;;;;;;9.63;6.43;;;;;;;7.41;67.24;98781.34;9841324;30;20049;-83
2021/12/14 16:22:11;;;;;;;10.18;6.57;;;;;;;7.38;67.21;98772.09;9818825;30;20127;-79
2021/12/14 16:27:33;;;;;;;9.98;6.18;;;;;;;7.39;67.54;98770.06;9856970;30;20450;-80
2021/12/14 16:33:02;;;;;;;9.43;5.93;;;;;;;7.36;67.95;98782.28;9824115;30;20052;-82
2021/12/14 16:38:27;;;;;;;11.13;6.18;;;;;;;7.32;67.91;98777.06;9821323;30;20044;-79
2021/12/14 16:44:03;;;;;;;8.95;6.35;;;;;;;7.33;68.07;98780.56;9821711;30;20037;-83
2021/12/14 16:49:27;;;;;;;11.13;6.93;;;;;;;7.33;68.21;98772.25;9861299;24;20071;-82
2021/12/14 16:54:51;;;;;;;11.53;7.43;;;;;;;7.31;68.32;98772.78;9848122;30;20012;-82
2021/12/14 17:00:22;;;;;;;8.45;6.05;;;;;;;7.26;68.16;98776.50;9851536;30;20074;-82
2021/12/14 17:06:07;;;;;;;8.60;6.15;;;;;;;7.30;68.18;98779.66;9861644;29;20078;-84
2021/12/14 17:11:30;;;;;;;8.80;6.22;;;;;;;7.29;68.56;98777.41;9805392;30;20052;-80
2021/12/14 17:17:03;;;;;;;12.15;7.22;;;;;;;7.26;67.99;98790.38;9782170;30;20099;-82
2021/12/14 17:22:29;;;;;;;11.23;7.80;;;;;;;7.26;68.21;98800.75;9778141;30;20071;-83
2021/12/14 17:27:51;;;;;;;9.77;7.15;;;;;;;7.25;68.66;98813.88;9786060;30;20075;-78
2021/12/14 17:33:12;;;;;;;12.40;7.75;;;;;;;7.27;68.76;98818.88;9798315;30;20052;-79
2021/12/14 17:38:33;;;;;;;12.48;7.70;;;;;;;7.24;68.79;98822.75;9799545;30;20048;-79
2021/12/14 17:44:13;;;;;;;15.02;8.93;;;;;;;7.24;68.98;98828.28;9859220;30;20138;-78
2021/12/14 17:49:37;;;;;;;13.07;7.97;;;;;;;7.21;68.91;98832.91;9844197;30;20071;-80
2021/12/14 17:55:14;;;;;;;11.85;8.05;;;;;;;7.16;68.86;98848.44;9854548;30;20048;-79
2021/12/14 18:00:59;;;;;;;14.07;8.27;;;;;;;7.12;68.96;98847.28;9821920;30;20388;-79
2021/12/14 18:06:21;;;;;;;;;;;;;;;7.12;69.11;98842.47;9846341;30;20477;-80
2021/12/14 18:11:42;;;;;;;12.55;8.15;;;;;;;7.09;68.96;98838.03;9861155;30;19926;-80
2021/12/14 18:17:11;;;;;;;11.88;8.27;;;;;;;7.09;69.24;98845.63;9846284;30;20067;-80
2021/12/14 18:22:36;;;;;;;10.43;7.70;;;;;;;7.06;69.33;98841.16;9851190;30;20073;-80
2021/12/14 18:27:56;;;;;;;10.45;7.20;;;;;;;7.06;69.21;98855.03;9850873;30;20092;-79
2021/12/14 18:33:17;;;;;;;9.93;6.68;;;;;;;7.03;69.00;98856.84;9866190;30;20039;-80
2021/12/14 18:38:40;;;;;;;10.40;7.03;;;;;;;7.00;69.39;98869.06;9844230;30;20059;-80
2021/12/14 18:44:00;;;;;;;8.98;6.72;;;;;;;7.01;69.86;98855.91;9846670;30;20082;-79
2021/12/14 18:49:41;;;;;;;7.47;5.75;;;;;;;6.98;69.71;98857.00;9847004;30;20060;-80
2021/12/14 18:55:07;;;;;;;7.05;5.65;;;;;;;6.95;69.37;98856.06;10181674;24;20440;-78
2021/12/14 19:00:28;;;;;;;8.13;5.93;;;;;;;6.95;69.38;98858.09;9839307;30;20040;-82
2021/12/14 19:05:53;;;;;;;8.70;6.80;;;;;;;6.91;69.47;98847.34;9802325;30;20085;-81
2021/12/14 19:11:16;;;;;;;6.97;5.95;;;;;;;6.88;69.52;98851.19;10433250;24;20044;-81
2021/12/14 19:16:51;;;;;;;7.40;6.00;;;;;;;6.88;69.59;98851.94;11618129;24;20064;-79
2021/12/14 19:22:18;;;;;;;8.43;6.13;;;;;;;6.88;69.54;98851.94;9832850;30;20069;-77
2021/12/14 19:27:39;;;;;;;10.13;6.57;;;;;;;6.88;69.83;98853.97;9826089;30;20079;-81
2021/12/14 19:33:00;;;;;;;7.82;5.95;;;;;;;6.89;69.53;98858.25;9835817;30;20028;-80
2021/12/14 19:38:22;;;;;;;9.68;6.85;;;;;;;6.87;69.54;98861.56;9852447;30;20519;-80
2021/12/14 19:43:47;;;;;;;9.77;6.43;;;;;;;6.86;69.68;98859.34;9849777;30;20044;-78
2021/12/14 19:49:09;;;;;;;9.32;6.93;;;;;;;6.87;69.65;98858.78;9815375;30;20060;-77
2021/12/14 19:54:51;;;;;;;8.82;6.75;;;;;;;6.86;69.53;98856.56;9815691;30;20071;-77
2021/12/14 20:00:18;;;;;;;10.32;6.90;;;;;;;6.84;69.63;98873.00;9851867;30;20052;-80
2021/12/14 20:05:41;;;;;;;8.30;7.03;;;;;;;6.84;69.62;98879.28;9821102;30;20052;-78
2021/12/14 20:11:06;;;;;;;9.38;6.97;;;;;;;6.85;69.69;98880.03;9882200;29;20035;-81
2021/12/14 20:16:34;;;;;;;11.52;6.85;;;;;;;6.87;69.77;98888.56;9863700;29;20040;-83
2021/12/14 20:21:55;;;;;;;9.75;7.28;;;;;;;6.85;69.82;98900.22;9871283;30;20060;-81
2021/12/14 20:27:22;;;;;;;8.52;6.97;;;;;;;6.84;70.04;98895.19;9851843;30;20091;-83
2021/12/14 20:32:46;;;;;;;8.48;6.88;;;;;;;6.85;69.90;98899.44;9872412;29;20048;-79
2021/12/14 20:38:10;;;;;;;11.63;7.93;;;;;;;6.85;69.98;98903.00;9865348;29;20028;-81
2021/12/14 20:44:03;;;;;;;10.80;7.67;;;;;;;6.85;69.76;98914.09;9872928;29;20040;-80
2021/12/14 20:49:30;;;;;;;10.40;7.63;;;;;;;6.87;69.72;98921.88;9878009;29;20286;-81
2021/12/14 20:54:57;;;;;;;10.38;7.75;;;;;;;6.87;70.00;98919.09;9863103;30;20032;-79
2021/12/14 21:00:44;;;;;;;11.27;7.63;;;;;;;6.84;69.95;98925.72;9823294;30;20576;-79
2021/12/14 21:06:15;;;;;;;11.00;7.75;;;;;;;6.80;69.81;98925.31;9826622;30;20063;-79
2021/12/14 21:11:37;;;;;;;16.00;8.73;;;;;;;6.79;70.09;98932.91;9826549;30;20055;-80
2021/12/14 21:16:58;;;;;;;11.05;8.23;;;;;;;6.78;69.98;98936.97;9831224;30;20133;-80
2021/12/14 21:22:22;;;;;;;12.52;8.50;;;;;;;6.80;70.18;98937.16;9835062;30;20495;-78
2021/12/14 21:28:37;;;;;;;12.80;8.97;;;;;;;6.79;69.97;98944.00;9860551;30;20051;-80
2021/12/14 21:33:59;;;;;;;13.27;8.55;;;;;;;6.80;70.32;98934.41;9738273;30;20075;-79
2021/12/14 21:39:25;;;;;;;13.77;9.32;;;;;;;6.81;70.01;98940.69;9824239;30;20414;-79
2021/12/14 21:50:14;;;;;;;11.73;8.50;;;;;;;6.80;69.96;98950.31;9831134;30;20049;-79
2021/12/14 21:55:35;;;;;;;12.32;9.90;;;;;;;6.78;69.97;98950.84;9831369;30;20480;-80
2021/12/14 22:00:56;;;;;;;13.43;9.70;;;;;;;6.76;69.71;98949.91;9838285;30;20051;-80
2021/12/14 22:06:17;;;;;;;12.57;9.45;;;;;;;6.73;69.85;98950.97;9811395;30;20502;-80
2021/12/14 22:11:42;;;;;;;13.43;10.25;;;;;;;6.71;70.09;98948.72;9830927;30;20052;-79
2021/12/14 22:17:08;;;;;;;13.75;9.68;;;;;;;6.69;70.00;98956.84;9820993;30;20060;-79
2021/12/14 22:22:29;;;;;;;14.80;10.40;;;;;;;6.70;70.25;98969.44;9812704;30;20052;-80
2021/12/14 22:27:50;;;;;;;15.65;10.48;;;;;;;6.69;70.03;98961.66;9810812;30;20465;-80
2021/12/14 22:33:11;;;;;;;16.90;11.45;;;;;;;6.70;70.15;98963.16;9810440;30;20048;-80
2021/12/14 22:38:32;;;;;;;13.05;9.73;;;;;;;6.69;70.00;98965.19;9810988;30;20052;-79
2021/12/14 22:44:06;;;;;;;14.20;10.33;;;;;;;6.72;69.87;98971.69;9822913;30;20087;-79
2021/12/14 22:49:31;;;;;;;14.88;10.57;;;;;;;6.75;69.97;98971.34;9813192;30;20052;-79
2021/12/14 22:55:04;;;;;;;14.57;10.40;;;;;;;6.74;70.02;98966.31;9823349;30;20110;-79
2021/12/14 23:01:05;;;;;;;15.52;10.55;;;;;;;6.75;69.83;98953.94;9834931;30;20052;-80
2021/12/14 23:06:28;;;;;;;15.27;10.05;;;;;;;6.71;69.81;98953.53;9813755;30;20063;-80
2021/12/14 23:11:50;;;;;;;13.77;10.20;;;;;;;6.75;69.82;98953.94;9817552;30;20102;-80
2021/12/14 23:17:13;;;;;;;18.33;10.82;;;;;;;6.77;69.75;98951.38;9817535;30;20083;-80
2021/12/14 23:22:38;;;;;;;14.52;10.45;;;;;;;6.80;69.61;98953.81;9829884;30;20059;-80
2021/12/14 23:28:00;;;;;;;12.63;9.05;;;;;;;6.82;69.74;98953.28;9829817;30;20052;-80
2021/12/14 23:33:21;;;;;;;15.80;10.60;;;;;;;6.81;69.79;98946.97;9828664;30;20592;-79
2021/12/14 23:38:46;;;;;;;14.15;9.48;;;;;;;6.84;69.79;98953.47;9817369;30;20055;-79
2021/12/14 23:44:12;;;;;;;17.15;11.77;;;;;;;6.85;69.93;98944.63;9829292;30;20059;-79
2021/12/14 23:49:33;;;;;;;12.60;9.10;;;;;;;6.84;69.75;98954.22;9816615;30;20055;-80
2021/12/14 23:54:54;;;;;;;12.68;10.20;;;;;;;6.84;69.93;98953.47;9828419;30;20048;-79
